createdAt,value
2023-03-30T00:01:02.533Z,101438.80
2023-03-30T00:03:33.565Z,101441.62
2023-03-30T00:06:03.698Z,101441.63
2023-03-30T00:08:33.608Z,101441.10
2023-03-30T00:11:04.423Z,101447.27
2023-03-30T00:13:36.064Z,101441.67
2023-03-30T00:16:04.579Z,101443.09
2023-03-30T00:18:34.628Z,101443.61
2023-03-30T00:21:09.629Z,101446.95
2023-03-30T00:23:40.744Z,101444.84
2023-03-30T00:26:09.019Z,101451.35
2023-03-30T00:28:37.552Z,101445.20
2023-03-30T00:31:07.537Z,101454.70
2023-03-30T00:33:45.606Z,101457.88
2023-03-30T00:36:16.267Z,101454.21
2023-03-30T00:38:46.042Z,101457.21
2023-03-30T00:41:14.570Z,101459.86
2023-03-30T00:43:58.205Z,101459.70
2023-03-30T00:46:26.928Z,101461.80
2023-03-30T00:48:58.141Z,101465.49
2023-03-30T00:51:28.860Z,101465.66
2023-03-30T00:54:03.771Z,101468.98
2023-03-30T00:56:33.259Z,101462.66
2023-03-30T00:59:01.511Z,101469.70
2023-03-30T01:01:30.670Z,101464.42
2023-03-30T01:04:00.103Z,101471.11
2023-03-30T01:06:30.325Z,101471.29
2023-03-30T01:08:58.562Z,101466.02
2023-03-30T01:11:29.790Z,101461.83
2023-03-30T01:14:02.133Z,101461.48
2023-03-30T01:16:30.520Z,101463.42
2023-03-30T01:18:58.659Z,101464.65
2023-03-30T01:21:46.070Z,101464.83
2023-03-30T01:24:35.276Z,101472.38
2023-03-30T01:27:19.425Z,101472.55
2023-03-30T01:30:01.552Z,101472.71
2023-03-30T01:32:33.556Z,101467.99
2023-03-30T01:35:07.775Z,101474.30
2023-03-30T01:37:57.507Z,101469.58
2023-03-30T01:40:33.566Z,101475.90
2023-03-30T01:43:05.412Z,101481.15
2023-03-30T01:45:43.927Z,101483.79
2023-03-30T01:48:12.175Z,101485.73
2023-03-30T01:50:41.950Z,101488.55
2023-03-30T01:53:17.834Z,101489.77
2023-03-30T01:55:57.683Z,101491.02
2023-03-30T01:58:26.458Z,101487.15
2023-03-30T02:00:56.173Z,101483.64
2023-03-30T02:03:31.863Z,101490.31
2023-03-30T02:06:04.159Z,101493.83
2023-03-30T02:08:34.814Z,101493.83
2023-03-30T02:11:04.816Z,101494.53
2023-03-30T02:13:33.430Z,101500.86
2023-03-30T02:16:03.271Z,101498.23
2023-03-30T02:18:32.242Z,101492.62
2023-03-30T02:21:02.357Z,101494.71
2023-03-30T02:23:32.206Z,101492.96
2023-03-30T02:26:00.836Z,101491.20
2023-03-30T02:28:35.098Z,101497.18
2023-03-30T02:31:04.012Z,101503.67
2023-03-30T02:33:39.070Z,101504.56
2023-03-30T02:36:41.067Z,101510.71
2023-03-30T02:39:12.473Z,101506.84
2023-03-30T02:41:49.405Z,101507.02
2023-03-30T02:44:23.827Z,101510.53
2023-03-30T02:47:10.813Z,101513.52
2023-03-30T02:50:03.794Z,101510.18
2023-03-30T02:52:38.775Z,101514.58
2023-03-30T02:55:30.239Z,101515.98
2023-03-30T02:58:28.246Z,101515.28
2023-03-30T03:01:23.787Z,101517.93
2023-03-30T03:04:02.098Z,101519.33
2023-03-30T03:06:37.759Z,101517.05
2023-03-30T03:09:06.417Z,101520.54
2023-03-30T03:11:34.788Z,101524.92
2023-03-30T03:14:03.332Z,101527.71
2023-03-30T03:16:33.128Z,101523.49
2023-03-30T03:19:12.691Z,101521.73
2023-03-30T03:21:42.978Z,101529.98
2023-03-30T03:24:13.937Z,101533.11
2023-03-30T03:27:01.198Z,101538.87
2023-03-30T03:29:31.610Z,101534.99
2023-03-30T03:31:59.982Z,101536.73
2023-03-30T03:34:32.020Z,101538.11
2023-03-30T03:37:03.243Z,101538.62
2023-03-30T03:39:33.162Z,101531.95
2023-03-30T03:42:09.251Z,101529.13
2023-03-30T03:44:43.633Z,101528.95
2023-03-30T03:47:16.019Z,101528.94
2023-03-30T03:49:45.199Z,101528.42
2023-03-30T03:52:13.471Z,101529.45
2023-03-30T03:54:41.930Z,101525.06
2023-03-30T03:57:15.279Z,101529.62
2023-03-30T03:59:43.644Z,101532.90
2023-03-30T04:02:12.118Z,101531.14
2023-03-30T04:04:41.099Z,101538.67
2023-03-30T04:07:09.479Z,101542.89
2023-03-30T04:09:37.807Z,101549.17
2023-03-30T04:12:22.173Z,101548.80
2023-03-30T04:15:09.190Z,101547.23
2023-03-30T04:18:05.648Z,101552.84
2023-03-30T04:21:05.797Z,101550.02
2023-03-30T04:23:56.014Z,101552.52
2023-03-30T04:26:57.930Z,101555.70
2023-03-30T04:29:44.934Z,101554.52
2023-03-30T04:32:41.525Z,101559.11
2023-03-30T04:35:32.657Z,101559.86
2023-03-30T04:38:07.635Z,101557.80
2023-03-30T04:41:02.581Z,101557.30
2023-03-30T04:43:54.315Z,101562.08
2023-03-30T04:46:41.368Z,101559.98
2023-03-30T04:49:10.866Z,101557.20
2023-03-30T04:51:45.520Z,101553.17
2023-03-30T04:54:20.137Z,101553.52
2023-03-30T04:57:07.574Z,101553.02
2023-03-30T05:00:07.763Z,101552.31
2023-03-30T05:02:55.885Z,101549.70
2023-03-30T05:05:59.464Z,101554.77
2023-03-30T05:08:48.653Z,101557.23
2023-03-30T05:11:42.272Z,101562.14
2023-03-30T05:14:23.423Z,101556.48
2023-03-30T05:17:26.371Z,101556.48
2023-03-30T05:20:15.369Z,101560.50
2023-03-30T05:23:02.388Z,101560.84
2023-03-30T05:25:55.420Z,101563.80
2023-03-30T05:28:35.816Z,101564.14
2023-03-30T05:31:23.083Z,101564.81
2023-03-30T05:34:12.948Z,101563.91
2023-03-30T05:36:56.108Z,101565.29
2023-03-30T05:39:37.192Z,101568.24
2023-03-30T05:42:44.469Z,101571.55
2023-03-30T05:45:38.975Z,101571.35
2023-03-30T05:48:27.287Z,101571.13
2023-03-30T05:51:09.558Z,101553.85
2023-03-30T05:53:58.725Z,101547.10
2023-03-30T05:56:40.279Z,101550.38
2023-03-30T05:59:27.563Z,101548.56
2023-03-30T06:02:10.727Z,101549.55
2023-03-30T06:04:39.957Z,101550.52
2023-03-30T06:07:08.410Z,101549.23
2023-03-30T06:09:39.873Z,101555.51
2023-03-30T06:12:18.845Z,101553.19
2023-03-30T06:14:47.098Z,101557.92
2023-03-30T06:17:36.616Z,101552.06
2023-03-30T06:20:09.524Z,101554.84
2023-03-30T06:22:44.116Z,101546.14
2023-03-30T06:25:24.875Z,101549.63
2023-03-30T06:27:54.205Z,101545.70
2023-03-30T06:30:22.915Z,101547.23
2023-03-30T06:32:53.759Z,101545.55
2023-03-30T06:35:31.027Z,101534.88
2023-03-30T06:37:59.814Z,101546.08
2023-03-30T06:40:28.551Z,101543.90
2023-03-30T06:42:58.070Z,101544.54
2023-03-30T06:45:37.949Z,101552.34
2023-03-30T06:48:07.354Z,101548.19
2023-03-30T06:50:38.876Z,101554.48
2023-03-30T06:53:18.944Z,101557.38
2023-03-30T06:55:53.193Z,101551.09
2023-03-30T06:58:26.338Z,101544.58
2023-03-30T07:00:54.815Z,101534.30
2023-03-30T07:03:41.632Z,101543.90
2023-03-30T07:06:18.709Z,101542.39
2023-03-30T07:08:48.597Z,101532.41
2023-03-30T07:11:25.010Z,101530.40
2023-03-30T07:13:56.444Z,101533.19
2023-03-30T07:16:25.835Z,101533.47
2023-03-30T07:18:55.406Z,101533.35
2023-03-30T07:21:23.952Z,101540.53
2023-03-30T07:23:52.567Z,101540.17
2023-03-30T07:26:47.489Z,101535.44
2023-03-30T07:29:15.748Z,101538.83
2023-03-30T07:31:45.784Z,101524.54
2023-03-30T07:34:17.136Z,101523.10
2023-03-30T07:36:49.218Z,101525.63
2023-03-30T07:39:18.711Z,101527.66
2023-03-30T07:41:47.924Z,101526.91
2023-03-30T07:44:16.388Z,101532.30
2023-03-30T07:46:45.003Z,101527.09
2023-03-30T07:49:18.234Z,101503.51
2023-03-30T07:51:52.987Z,101517.70
2023-03-30T07:54:25.019Z,101501.20
2023-03-30T07:57:13.598Z,101508.21
2023-03-30T07:59:42.412Z,101501.96
2023-03-30T08:02:38.130Z,101494.23
2023-03-30T08:05:09.952Z,101500.47
2023-03-30T08:07:50.359Z,101498.20
2023-03-30T08:10:23.894Z,101493.98
2023-03-30T08:12:59.228Z,101493.55
2023-03-30T08:15:28.036Z,101493.52
2023-03-30T08:17:57.704Z,101507.50
2023-03-30T08:20:28.889Z,101501.88
2023-03-30T08:22:57.261Z,101511.75
2023-03-30T08:25:25.535Z,101499.04
2023-03-30T08:27:54.261Z,101510.49
2023-03-30T08:30:23.065Z,101512.19
2023-03-30T08:32:57.268Z,101504.73
2023-03-30T08:35:25.545Z,101512.48
2023-03-30T08:37:54.134Z,101505.53
2023-03-30T08:40:22.771Z,101501.88
2023-03-30T08:43:23.130Z,101496.20
2023-03-30T08:45:58.552Z,101513.27
2023-03-30T08:48:27.793Z,101503.77
2023-03-30T08:51:03.784Z,101497.43
2023-03-30T08:53:33.761Z,101491.08
2023-03-30T08:56:07.915Z,101492.02
2023-03-30T08:58:36.183Z,101486.41
2023-03-30T09:01:08.760Z,101495.64
2023-03-30T09:03:41.485Z,101486.80
2023-03-30T09:06:11.203Z,101486.36
2023-03-30T09:08:41.027Z,101483.29
2023-03-30T09:11:13.502Z,101475.41
2023-03-30T09:13:44.397Z,101481.64
2023-03-30T09:16:31.293Z,101481.23
2023-03-30T09:19:08.315Z,101470.69
2023-03-30T09:21:37.294Z,101474.13
2023-03-30T09:24:11.006Z,101470.47
2023-03-30T09:26:55.169Z,101460.31
2023-03-30T09:29:26.384Z,101459.58
2023-03-30T09:31:55.622Z,101472.17
2023-03-30T09:34:29.855Z,101461.06
2023-03-30T09:36:58.525Z,101454.27
2023-03-30T09:39:27.854Z,101444.25
2023-03-30T09:42:13.938Z,101439.95
2023-03-30T09:44:47.602Z,101431.43
2023-03-30T09:47:15.958Z,101429.20
2023-03-30T09:49:44.165Z,101431.44
2023-03-30T09:52:20.092Z,101425.98
2023-03-30T09:54:48.245Z,101428.91
2023-03-30T09:57:32.441Z,101427.65
2023-03-30T10:00:01.572Z,101438.09
2023-03-30T10:02:40.738Z,101423.66
2023-03-30T10:05:14.154Z,101407.60
2023-03-30T10:07:43.316Z,101406.98
2023-03-30T10:10:27.879Z,101410.45
2023-03-30T10:13:02.359Z,101400.80
2023-03-30T10:15:35.642Z,101398.71
2023-03-30T10:18:09.082Z,101400.89
2023-03-30T10:20:39.111Z,101387.99
2023-03-30T10:23:13.835Z,101391.23
2023-03-30T10:25:42.680Z,101379.54
2023-03-30T10:28:21.854Z,101374.93
2023-03-30T10:30:59.308Z,101374.54
2023-03-30T10:33:28.504Z,101372.63
2023-03-30T10:35:57.813Z,101366.73
2023-03-30T10:38:25.925Z,101363.27
2023-03-30T10:40:58.880Z,101357.01
2023-03-30T10:43:28.145Z,101359.05
2023-03-30T10:46:01.466Z,101355.13
2023-03-30T10:48:38.044Z,101364.41
2023-03-30T10:51:25.210Z,101355.48
2023-03-30T10:54:05.132Z,101350.12
2023-03-30T10:56:39.408Z,101353.69
2023-03-30T10:59:20.305Z,101345.05
2023-03-30T11:01:55.646Z,101338.23
2023-03-30T11:04:36.673Z,101342.13
2023-03-30T11:07:05.898Z,101349.75
2023-03-30T11:09:37.789Z,101338.88
2023-03-30T11:12:13.432Z,101331.10
2023-03-30T11:14:53.006Z,101318.38
2023-03-30T11:17:25.972Z,101309.91
2023-03-30T11:19:56.155Z,101322.05
2023-03-30T11:22:47.867Z,101315.44
2023-03-30T11:25:23.652Z,101318.86
2023-03-30T11:27:56.081Z,101300.47
2023-03-30T11:30:24.658Z,101300.66
2023-03-30T11:33:02.629Z,101309.30
2023-03-30T11:35:44.540Z,101293.39
2023-03-30T11:38:13.083Z,101289.58
2023-03-30T11:40:43.435Z,101282.41
2023-03-30T11:43:12.648Z,101280.61
2023-03-30T11:45:50.684Z,101289.19
2023-03-30T11:48:18.798Z,101283.80
2023-03-30T11:50:49.986Z,101278.41
2023-03-30T11:53:24.557Z,101283.05
2023-03-30T11:55:57.014Z,101269.91
2023-03-30T11:58:25.502Z,101270.71
2023-03-30T12:00:56.984Z,101259.67
2023-03-30T12:03:32.678Z,101252.08
2023-03-30T12:06:21.233Z,101257.82
2023-03-30T12:09:01.223Z,101253.08
2023-03-30T12:11:46.310Z,101254.49
2023-03-30T12:14:31.544Z,101246.68
2023-03-30T12:17:00.609Z,101269.34
2023-03-30T12:19:31.827Z,101268.37
2023-03-30T12:22:05.276Z,101250.14
2023-03-30T12:24:40.615Z,101255.61
2023-03-30T12:27:11.118Z,101256.63
2023-03-30T12:32:28.179Z,101251.84
2023-03-30T12:34:57.599Z,101240.73
2023-03-30T12:37:33.601Z,101244.98
2023-03-30T12:40:06.965Z,101245.33
2023-03-30T12:42:47.761Z,101247.48
2023-03-30T12:45:16.710Z,101237.83
2023-03-30T12:48:02.306Z,101227.72
2023-03-30T12:50:49.327Z,101243.63
2023-03-30T12:53:33.660Z,101244.37
2023-03-30T12:56:08.187Z,101230.09
2023-03-30T12:58:40.853Z,101219.38
2023-03-30T13:01:28.106Z,101221.73
2023-03-30T13:04:21.852Z,101228.23
2023-03-30T13:06:58.710Z,101212.69
2023-03-30T13:09:27.406Z,101206.28
2023-03-30T13:11:55.600Z,101201.98
2023-03-30T13:14:27.122Z,101210.10
2023-03-30T13:16:55.555Z,101191.90
2023-03-30T13:19:32.758Z,101186.52
2023-03-30T13:22:04.826Z,101187.61
2023-03-30T13:24:34.167Z,101198.18
2023-03-30T13:27:14.491Z,101213.11
2023-03-30T13:29:49.244Z,101186.95
2023-03-30T13:32:19.703Z,101180.73
2023-03-30T13:35:03.648Z,101175.99
2023-03-30T13:37:41.113Z,101178.48
2023-03-30T13:40:12.480Z,101177.85
2023-03-30T13:42:46.978Z,101189.85
2023-03-30T13:45:21.674Z,101166.38
2023-03-30T13:47:57.457Z,101168.12
2023-03-30T13:50:31.303Z,101165.23
2023-03-30T13:52:59.846Z,101164.83
2023-03-30T13:55:33.522Z,101168.80
2023-03-30T13:58:05.495Z,101159.09
2023-03-30T14:00:39.980Z,101149.02
2023-03-30T14:03:27.598Z,101136.90
2023-03-30T14:06:09.156Z,101129.70
2023-03-30T14:08:38.007Z,101139.61
2023-03-30T14:11:11.934Z,101140.66
2023-03-30T14:13:43.893Z,101128.21
2023-03-30T14:16:13.679Z,101124.59
2023-03-30T14:18:43.590Z,101135.84
2023-03-30T14:21:14.461Z,101131.56
2023-03-30T14:23:44.462Z,101122.48
2023-03-30T14:26:16.699Z,101122.73
2023-03-30T14:28:45.104Z,101127.15
2023-03-30T14:31:17.658Z,101116.80
2023-03-30T14:33:46.339Z,101125.88
2023-03-30T14:36:16.591Z,101121.82
2023-03-30T14:38:50.520Z,101128.74
2023-03-30T14:41:28.129Z,101112.19
2023-03-30T14:43:56.475Z,101118.68
2023-03-30T14:46:25.847Z,101126.49
2023-03-30T14:48:54.434Z,101114.21
2023-03-30T14:51:23.892Z,101120.29
2023-03-30T14:53:52.640Z,101131.04
2023-03-30T14:56:21.485Z,101119.77
2023-03-30T14:58:49.755Z,101129.19
2023-03-30T15:01:18.899Z,101124.11
2023-03-30T15:03:48.138Z,101106.81
2023-03-30T15:06:17.244Z,101118.73
2023-03-30T15:08:46.551Z,101114.60
2023-03-30T15:11:20.516Z,101105.30
2023-03-30T15:13:53.154Z,101106.85
2023-03-30T15:16:22.563Z,101114.85
2023-03-30T15:18:52.851Z,101110.84
2023-03-30T15:21:21.167Z,101115.85
2023-03-30T15:23:50.080Z,101102.02
2023-03-30T15:26:19.210Z,101100.55
2023-03-30T15:28:57.289Z,101113.02
2023-03-30T15:31:28.941Z,101112.44
2023-03-30T15:33:57.897Z,101118.39
2023-03-30T15:36:26.829Z,101115.25
2023-03-30T15:38:58.960Z,101102.45
2023-03-30T15:41:47.320Z,101106.23
2023-03-30T15:44:19.215Z,101102.42
2023-03-30T15:46:49.000Z,101103.30
2023-03-30T15:49:22.038Z,101107.42
2023-03-30T15:51:52.188Z,101106.52
2023-03-30T15:54:27.518Z,101107.40
2023-03-30T15:57:00.736Z,101113.28
2023-03-30T15:59:31.161Z,101106.33
2023-03-30T16:02:18.485Z,101102.55
2023-03-30T16:04:49.711Z,101101.64
2023-03-30T16:07:18.902Z,101109.29
2023-03-30T16:09:47.410Z,101106.80
2023-03-30T16:12:20.293Z,101107.16
2023-03-30T16:14:48.674Z,101109.55
2023-03-30T16:17:17.162Z,101107.48
2023-03-30T16:19:45.591Z,101107.34
2023-03-30T16:22:14.020Z,101105.45
2023-03-30T16:24:43.576Z,101106.61
2023-03-30T16:27:12.198Z,101106.17
2023-03-30T16:29:46.478Z,101114.44
2023-03-30T16:32:15.118Z,101116.11
2023-03-30T16:34:44.050Z,101112.06
2023-03-30T16:37:13.868Z,101117.28
2023-03-30T16:39:42.759Z,101115.53
2023-03-30T16:42:12.183Z,101109.84
2023-03-30T16:44:40.814Z,101116.94
2023-03-30T16:47:09.142Z,101112.19
2023-03-30T16:49:38.162Z,101116.19
2023-03-30T16:52:06.359Z,101119.52
2023-03-30T16:54:34.866Z,101123.34
2023-03-30T16:57:05.780Z,101124.86
2023-03-30T16:59:36.725Z,101128.69
2023-03-30T17:02:04.932Z,101128.48
2023-03-30T17:04:33.032Z,101129.84
2023-03-30T17:07:02.010Z,101131.69
2023-03-30T17:09:30.489Z,101132.83
2023-03-30T17:11:59.023Z,101135.73
2023-03-30T17:14:28.339Z,101134.54
2023-03-30T17:16:56.632Z,101133.77
2023-03-30T17:19:25.610Z,101136.39
2023-03-30T17:21:53.722Z,101136.94
2023-03-30T17:24:22.182Z,101136.42
2023-03-30T17:26:51.103Z,101137.89
2023-03-30T17:29:20.003Z,101140.49
2023-03-30T17:31:49.835Z,101133.48
2023-03-30T17:34:18.821Z,101134.92
2023-03-30T17:36:47.315Z,101133.09
2023-03-30T17:39:17.304Z,101136.52
2023-03-30T17:41:45.644Z,101137.77
2023-03-30T17:44:18.036Z,101136.32
2023-03-30T17:46:46.603Z,101136.30
2023-03-30T17:49:16.510Z,101141.77
2023-03-30T17:51:45.725Z,101142.98
2023-03-30T17:54:14.078Z,101137.30
2023-03-30T17:56:43.411Z,101139.10
2023-03-30T17:59:11.781Z,101138.18
2023-03-30T18:01:40.700Z,101137.60
2023-03-30T18:04:09.433Z,101136.83
2023-03-30T18:06:37.875Z,101140.27
2023-03-30T18:09:07.805Z,101137.52
2023-03-30T18:11:39.828Z,101139.34
2023-03-30T18:14:08.462Z,101141.77
2023-03-30T18:16:37.557Z,101139.35
2023-03-30T18:19:06.122Z,101140.55
2023-03-30T18:21:34.715Z,101139.29
2023-03-30T18:24:03.890Z,101142.28
2023-03-30T18:26:33.482Z,101141.70
2023-03-30T18:29:01.646Z,101141.48
2023-03-30T18:31:30.044Z,101140.53
2023-03-30T18:33:59.116Z,101145.27
2023-03-30T18:36:27.764Z,101143.55
2023-03-30T18:38:56.040Z,101145.73
2023-03-30T18:41:26.215Z,101144.91
2023-03-30T18:43:54.671Z,101136.77
2023-03-30T18:46:22.869Z,101139.30
2023-03-30T18:48:53.083Z,101137.31
2023-03-30T18:51:22.314Z,101136.00
2023-03-30T18:53:50.494Z,101141.04
2023-03-30T18:56:18.639Z,101138.98
2023-03-30T18:58:46.775Z,101132.13
2023-03-30T19:01:16.225Z,101134.59
2023-03-30T19:03:45.348Z,101128.63
2023-03-30T19:06:16.156Z,101132.55
2023-03-30T19:08:44.749Z,101131.65
2023-03-30T19:11:14.322Z,101130.67
2023-03-30T19:13:42.828Z,101129.59
2023-03-30T19:16:12.557Z,101122.12
2023-03-30T19:18:41.346Z,101121.94
2023-03-30T19:21:12.211Z,101119.77
2023-03-30T19:23:40.995Z,101119.96
2023-03-30T19:26:09.243Z,101120.38
2023-03-30T19:28:39.208Z,101126.41
2023-03-30T19:31:12.303Z,101127.50
2023-03-30T19:33:40.759Z,101127.15
2023-03-30T19:36:09.721Z,101121.89
2023-03-30T19:38:38.715Z,101123.51
2023-03-30T19:41:10.357Z,101122.16
2023-03-30T19:43:39.666Z,101127.03
2023-03-30T19:46:08.933Z,101126.97
2023-03-30T19:48:38.398Z,101123.82
2023-03-30T19:51:06.831Z,101119.52
2023-03-30T19:53:37.756Z,101123.83
2023-03-30T19:56:10.488Z,101119.83
2023-03-30T19:58:38.884Z,101121.62
2023-03-30T20:01:08.403Z,101116.64
2023-03-30T20:03:37.675Z,101117.47
2023-03-30T20:06:15.114Z,101116.52
2023-03-30T20:08:45.277Z,101116.09
2023-03-30T20:11:14.048Z,101112.19
2023-03-30T20:13:45.953Z,101107.73
2023-03-30T20:16:20.495Z,101106.80
2023-03-30T20:18:50.906Z,101100.48
2023-03-30T20:21:24.715Z,101099.33
2023-03-30T20:23:53.032Z,101091.66
2023-03-30T20:26:21.617Z,101092.95
2023-03-30T20:28:50.293Z,101089.30
2023-03-30T20:31:18.581Z,101092.16
2023-03-30T20:33:46.866Z,101092.39
2023-03-30T20:36:15.077Z,101094.96
2023-03-30T20:38:46.145Z,101095.82
2023-03-30T20:41:14.636Z,101095.95
2023-03-30T20:43:57.049Z,101098.70
2023-03-30T20:46:26.223Z,101097.07
2023-03-30T20:48:54.516Z,101094.48
2023-03-30T20:51:22.995Z,101099.58
2023-03-30T20:53:51.247Z,101096.48
2023-03-30T20:56:19.930Z,101098.16
2023-03-30T20:58:48.300Z,101094.02
2023-03-30T21:01:18.104Z,101085.23
2023-03-30T21:03:50.178Z,101088.55
2023-03-30T21:06:19.882Z,101084.73
2023-03-30T21:08:48.742Z,101079.73
2023-03-30T21:11:17.294Z,101076.55
2023-03-30T21:13:54.684Z,101073.58
2023-03-30T21:16:26.818Z,101072.50
2023-03-30T21:18:55.246Z,101071.34
2023-03-30T21:21:24.861Z,101067.69
2023-03-30T21:23:53.047Z,101063.70
2023-03-30T21:26:21.653Z,101063.83
2023-03-30T21:28:57.182Z,101058.16
2023-03-30T21:31:25.861Z,101058.33
2023-03-30T21:33:54.997Z,101056.46
2023-03-30T21:36:23.597Z,101053.55
2023-03-30T21:38:51.889Z,101050.65
2023-03-30T21:41:21.287Z,101050.45
2023-03-30T21:43:50.992Z,101048.88
2023-03-30T21:46:20.263Z,101044.60
2023-03-30T21:48:53.677Z,101042.23
2023-03-30T21:51:27.501Z,101040.87
2023-03-30T21:53:59.325Z,101035.38
2023-03-30T21:56:29.291Z,101029.61
2023-03-30T21:58:58.328Z,101025.38
2023-03-30T22:01:26.595Z,101029.33
2023-03-30T22:03:55.545Z,101024.42
2023-03-30T22:06:24.051Z,101021.85
2023-03-30T22:08:52.509Z,101019.30
2023-03-30T22:11:21.642Z,101016.41
2023-03-30T22:13:50.895Z,101015.50
2023-03-30T22:16:23.043Z,101013.69
2023-03-30T22:18:56.286Z,101012.63
2023-03-30T22:21:25.482Z,101015.61
2023-03-30T22:23:55.033Z,101013.39
2023-03-30T22:26:23.668Z,101011.76
2023-03-30T22:28:52.246Z,101010.00
2023-03-30T22:31:23.947Z,101010.11
2023-03-30T22:33:52.893Z,101007.03
2023-03-30T22:36:23.352Z,100999.85
2023-03-30T22:38:51.888Z,100998.49
2023-03-30T22:41:24.175Z,100994.13
2023-03-30T22:43:53.221Z,100993.56
2023-03-30T22:46:22.198Z,100989.39
2023-03-30T22:48:51.836Z,100988.93
2023-03-30T22:51:26.780Z,100982.71
2023-03-30T22:53:59.531Z,100977.89
2023-03-30T22:56:32.002Z,100974.52
2023-03-30T22:59:01.492Z,100968.51
2023-03-30T23:01:32.688Z,100964.42
2023-03-30T23:04:04.658Z,100964.03
2023-03-30T23:06:36.782Z,100966.56
2023-03-30T23:09:05.196Z,100964.52
2023-03-30T23:11:34.969Z,100965.06
2023-03-30T23:14:06.420Z,100961.42
2023-03-30T23:16:36.181Z,100960.06
2023-03-30T23:19:06.942Z,100959.11
2023-03-30T23:21:36.129Z,100950.45
2023-03-30T23:24:05.556Z,100950.55
2023-03-30T23:26:33.797Z,100945.98
2023-03-30T23:29:02.464Z,100944.36
2023-03-30T23:31:31.873Z,100942.30
2023-03-30T23:34:00.195Z,100939.16
2023-03-30T23:36:28.864Z,100936.29
2023-03-30T23:38:57.849Z,100931.18
2023-03-30T23:41:26.620Z,100926.98
2023-03-30T23:43:58.421Z,100927.71
2023-03-30T23:46:26.852Z,100923.45
2023-03-30T23:48:55.144Z,100923.45
2023-03-30T23:51:23.470Z,100921.52
2023-03-30T23:53:54.695Z,100913.29
2023-03-30T23:56:25.992Z,100911.05
2023-03-30T23:58:54.337Z,100905.99
